August, Belize

7:20 PM CST on April 26, 2017 (GMT -0600)
Tower Hill Area, Orange Walk | | Change Station

Elev 56 ft 18.06 °N, 88.57 °W | Updated 2 seconds ago

Clear
Clear
83.2 °F
Feels Like 92 °F
N
5.8
Wind Variable Wind from ENE
Gusts 11.0 mph

Today
High -- | Low -- °F
--% Chance of Precip.
Yesterday
High -- | Low -- °F
Precip. -- in
Pressure 29.69 in
Visibility 7.0 miles
Clouds Mostly Cloudy 2000 ft
Heat Index 92 °F
Dew Point 76 °F
Humidity 81%
Rainfall 0.00 in
Snow Depth Not available.
5:31 AM 6:14 PM
New Moon, 0% visible
METAR MMCM 270043Z 09010KT 7SM BKN020 28/25 A2969 RMK 8/500 HZY
Pressure 29.69 in
Visibility 7.0 miles
Clouds Mostly Cloudy 2000 ft
Heat Index 92 °F
Dew Point 76 °F
Humidity 81%
Rainfall 0.00 in
Snow Depth Not available.
5:31 AM 6:14 PM
New Moon, 0% visible
METAR MMCM 270043Z 09010KT 7SM BKN020 28/25 A2969 RMK 8/500 HZY

Get Severe Weather Alerts

Thanks for signing up!

Be on the lookout for a verification email in your inbox.

You'll start receiving the daily forecast at 8 AM.

×

10-Day Weather Forecast

No radar image for this location.
×

Almanac

Astronomy

Apr. 26, 2017 Rise Set
Actual Time
Civil Twilight
Nautical Twilight
Astronomical Twilight
Moon
Length of Visible Light
Length of Day
Tomorrow will be .
, % of the Moon is Illuminated

Today's Extremes

Country Highs Country Lows

Community

WunderPhotos

WunderBlog® & News

Nearby

Air Quality

  Air Quality AQ Index Pollutant
Not available.

Snow Depth

Station Depth Elevation

Earthquake Activity

City Distance Mag. Time & Date
Minimum magnitude displayed is 2.5.

Coastal Water Temperatures

Place Temperature

Stations

Nearby Weather Stations

Station Location Temp. Windchill Dew Point Humidity Wind Precip. Elev Updated Type